sensor_id;sensor_type;location;lat;lon;timestamp;P1;durP1;ratioP1;P2;durP2;ratioP2
9007;SDS011;62813;51.424;6.762;2022-12-07T00:01:37;14.47;;;11.87;;
9007;SDS011;62813;51.424;6.762;2022-12-07T00:04:05;15.07;;;12.17;;
9007;SDS011;62813;51.424;6.762;2022-12-07T00:06:37;16.47;;;13.03;;
9007;SDS011;62813;51.424;6.762;2022-12-07T00:09:06;14.53;;;12.70;;
9007;SDS011;62813;51.424;6.762;2022-12-07T00:11:36;17.47;;;12.70;;
9007;SDS011;62813;51.424;6.762;2022-12-07T00:14:04;17.47;;;12.77;;
9007;SDS011;62813;51.424;6.762;2022-12-07T00:16:34;22.17;;;13.70;;
9007;SDS011;62813;51.424;6.762;2022-12-07T00:19:02;17.70;;;12.23;;
9007;SDS011;62813;51.424;6.762;2022-12-07T00:21:30;13.90;;;12.50;;
9007;SDS011;62813;51.424;6.762;2022-12-07T00:23:58;17.00;;;12.17;;
9007;SDS011;62813;51.424;6.762;2022-12-07T00:26:26;13.43;;;12.00;;
9007;SDS011;62813;51.424;6.762;2022-12-07T00:28:58;17.60;;;13.60;;
9007;SDS011;62813;51.424;6.762;2022-12-07T00:31:28;14.30;;;12.83;;
9007;SDS011;62813;51.424;6.762;2022-12-07T00:33:57;14.80;;;13.20;;
9007;SDS011;62813;51.424;6.762;2022-12-07T00:36:24;17.93;;;13.67;;
9007;SDS011;62813;51.424;6.762;2022-12-07T00:38:53;15.70;;;14.00;;
9007;SDS011;62813;51.424;6.762;2022-12-07T00:41:22;15.27;;;13.67;;
9007;SDS011;62813;51.424;6.762;2022-12-07T00:43:50;18.20;;;14.37;;
9007;SDS011;62813;51.424;6.762;2022-12-07T00:46:17;15.40;;;13.30;;
9007;SDS011;62813;51.424;6.762;2022-12-07T00:48:46;17.27;;;13.17;;
9007;SDS011;62813;51.424;6.762;2022-12-07T00:51:14;16.20;;;13.50;;
9007;SDS011;62813;51.424;6.762;2022-12-07T00:53:41;15.50;;;13.43;;
9007;SDS011;62813;51.424;6.762;2022-12-07T00:56:09;15.47;;;12.70;;
9007;SDS011;62813;51.424;6.762;2022-12-07T00:58:40;17.80;;;14.30;;
9007;SDS011;62813;51.424;6.762;2022-12-07T01:01:07;15.73;;;14.00;;
9007;SDS011;62813;51.424;6.762;2022-12-07T01:03:35;21.00;;;15.33;;
9007;SDS011;62813;51.424;6.762;2022-12-07T01:06:02;15.57;;;13.50;;
9007;SDS011;62813;51.424;6.762;2022-12-07T01:08:29;18.27;;;14.50;;
9007;SDS011;62813;51.424;6.762;2022-12-07T01:11:00;16.83;;;13.33;;
9007;SDS011;62813;51.424;6.762;2022-12-07T01:13:31;16.00;;;14.30;;
9007;SDS011;62813;51.424;6.762;2022-12-07T01:15:59;17.73;;;14.43;;
9007;SDS011;62813;51.424;6.762;2022-12-07T01:18:28;15.97;;;13.60;;
9007;SDS011;62813;51.424;6.762;2022-12-07T01:23:30;15.03;;;13.23;;
9007;SDS011;62813;51.424;6.762;2022-12-07T01:25:58;16.37;;;13.83;;
9007;SDS011;62813;51.424;6.762;2022-12-07T01:28:26;16.20;;;14.47;;
9007;SDS011;62813;51.424;6.762;2022-12-07T01:31:03;17.93;;;14.17;;
9007;SDS011;62813;51.424;6.762;2022-12-07T01:33:33;17.50;;;14.37;;
9007;SDS011;62813;51.424;6.762;2022-12-07T01:36:02;17.43;;;14.30;;
9007;SDS011;62813;51.424;6.762;2022-12-07T01:38:30;17.83;;;13.77;;
9007;SDS011;62813;51.424;6.762;2022-12-07T01:40:58;15.13;;;13.53;;
9007;SDS011;62813;51.424;6.762;2022-12-07T01:43:26;15.10;;;13.50;;
9007;SDS011;62813;51.424;6.762;2022-12-07T01:45:55;16.60;;;13.07;;
9007;SDS011;62813;51.424;6.762;2022-12-07T01:48:30;14.17;;;12.23;;
9007;SDS011;62813;51.424;6.762;2022-12-07T01:51:02;16.00;;;13.93;;
9007;SDS011;62813;51.424;6.762;2022-12-07T01:53:35;16.37;;;13.70;;
9007;SDS011;62813;51.424;6.762;2022-12-07T01:56:04;14.57;;;12.77;;
9007;SDS011;62813;51.424;6.762;2022-12-07T01:58:34;14.53;;;12.80;;
9007;SDS011;62813;51.424;6.762;2022-12-07T02:01:01;17.10;;;13.90;;
9007;SDS011;62813;51.424;6.762;2022-12-07T02:03:36;16.10;;;13.47;;
9007;SDS011;62813;51.424;6.762;2022-12-07T02:06:05;16.50;;;13.97;;
9007;SDS011;62813;51.424;6.762;2022-12-07T02:08:34;18.27;;;13.23;;
9007;SDS011;62813;51.424;6.762;2022-12-07T02:11:04;15.70;;;14.00;;
9007;SDS011;62813;51.424;6.762;2022-12-07T02:13:34;16.73;;;13.03;;
9007;SDS011;62813;51.424;6.762;2022-12-07T02:29:39;18.13;;;13.87;;
9007;SDS011;62813;51.424;6.762;2022-12-07T02:32:22;16.17;;;13.80;;
9007;SDS011;62813;51.424;6.762;2022-12-07T02:35:04;15.47;;;12.90;;
9007;SDS011;62813;51.424;6.762;2022-12-07T02:40:08;14.90;;;12.60;;
9007;SDS011;62813;51.424;6.762;2022-12-07T02:43:25;13.90;;;12.30;;
9007;SDS011;62813;51.424;6.762;2022-12-07T02:45:34;15.07;;;12.97;;
9007;SDS011;62813;51.424;6.762;2022-12-07T02:48:04;14.03;;;12.13;;
9007;SDS011;62813;51.424;6.762;2022-12-07T02:50:33;15.67;;;12.37;;
9007;SDS011;62813;51.424;6.762;2022-12-07T02:52:59;14.73;;;13.17;;
9007;SDS011;62813;51.424;6.762;2022-12-07T02:55:31;14.47;;;12.50;;
9007;SDS011;62813;51.424;6.762;2022-12-07T02:58:11;15.53;;;13.13;;
9007;SDS011;62813;51.424;6.762;2022-12-07T03:01:04;14.27;;;12.77;;
9007;SDS011;62813;51.424;6.762;2022-12-07T03:03:41;14.57;;;12.97;;
9007;SDS011;62813;51.424;6.762;2022-12-07T03:06:16;14.20;;;12.70;;
9007;SDS011;62813;51.424;6.762;2022-12-07T03:11:46;16.80;;;13.23;;
9007;SDS011;62813;51.424;6.762;2022-12-07T03:14:18;16.03;;;13.07;;
9007;SDS011;62813;51.424;6.762;2022-12-07T03:16:59;14.20;;;12.77;;
9007;SDS011;62813;51.424;6.762;2022-12-07T03:19:32;16.70;;;13.17;;
9007;SDS011;62813;51.424;6.762;2022-12-07T03:22:03;16.27;;;12.67;;
9007;SDS011;62813;51.424;6.762;2022-12-07T03:24:35;15.70;;;12.97;;
9007;SDS011;62813;51.424;6.762;2022-12-07T03:27:07;17.43;;;12.93;;
9007;SDS011;62813;51.424;6.762;2022-12-07T03:29:44;17.10;;;12.77;;
9007;SDS011;62813;51.424;6.762;2022-12-07T03:32:19;16.20;;;12.20;;
9007;SDS011;62813;51.424;6.762;2022-12-07T03:35:01;13.93;;;12.40;;
9007;SDS011;62813;51.424;6.762;2022-12-07T03:37:36;16.00;;;12.00;;
9007;SDS011;62813;51.424;6.762;2022-12-07T03:40:13;19.73;;;14.43;;
9007;SDS011;62813;51.424;6.762;2022-12-07T03:42:44;18.10;;;12.07;;
9007;SDS011;62813;51.424;6.762;2022-12-07T03:45:11;15.17;;;12.23;;
9007;SDS011;62813;51.424;6.762;2022-12-07T03:47:43;15.93;;;11.03;;
9007;SDS011;62813;51.424;6.762;2022-12-07T03:50:33;13.47;;;12.07;;
9007;SDS011;62813;51.424;6.762;2022-12-07T03:53:29;14.80;;;12.00;;
9007;SDS011;62813;51.424;6.762;2022-12-07T03:56:01;14.30;;;12.13;;
9007;SDS011;62813;51.424;6.762;2022-12-07T03:58:29;13.30;;;11.73;;
9007;SDS011;62813;51.424;6.762;2022-12-07T04:00:56;14.67;;;12.43;;
9007;SDS011;62813;51.424;6.762;2022-12-07T04:03:23;16.30;;;11.73;;
9007;SDS011;62813;51.424;6.762;2022-12-07T04:05:49;15.97;;;12.00;;
9007;SDS011;62813;51.424;6.762;2022-12-07T04:08:16;15.83;;;12.13;;
9007;SDS011;62813;51.424;6.762;2022-12-07T04:10:43;15.53;;;13.07;;
9007;SDS011;62813;51.424;6.762;2022-12-07T04:13:09;13.07;;;11.67;;
9007;SDS011;62813;51.424;6.762;2022-12-07T04:15:36;16.20;;;12.67;;
9007;SDS011;62813;51.424;6.762;2022-12-07T04:18:02;13.77;;;12.37;;
9007;SDS011;62813;51.424;6.762;2022-12-07T04:20:29;15.70;;;12.43;;
9007;SDS011;62813;51.424;6.762;2022-12-07T04:22:55;13.80;;;12.07;;
9007;SDS011;62813;51.424;6.762;2022-12-07T04:25:22;14.67;;;11.20;;
9007;SDS011;62813;51.424;6.762;2022-12-07T04:27:48;15.10;;;11.80;;
9007;SDS011;62813;51.424;6.762;2022-12-07T04:30:15;14.90;;;11.93;;
9007;SDS011;62813;51.424;6.762;2022-12-07T04:32:41;14.27;;;11.83;;
9007;SDS011;62813;51.424;6.762;2022-12-07T04:35:08;16.07;;;11.37;;
9007;SDS011;62813;51.424;6.762;2022-12-07T04:37:35;16.63;;;12.10;;
9007;SDS011;62813;51.424;6.762;2022-12-07T04:40:01;15.70;;;11.93;;
9007;SDS011;62813;51.424;6.762;2022-12-07T04:42:29;14.27;;;11.27;;
9007;SDS011;62813;51.424;6.762;2022-12-07T04:44:55;15.37;;;11.60;;
9007;SDS011;62813;51.424;6.762;2022-12-07T04:47:22;14.93;;;11.67;;
9007;SDS011;62813;51.424;6.762;2022-12-07T04:49:48;14.60;;;11.17;;
9007;SDS011;62813;51.424;6.762;2022-12-07T04:52:15;16.13;;;10.90;;
9007;SDS011;62813;51.424;6.762;2022-12-07T04:54:41;12.90;;;10.60;;
9007;SDS011;62813;51.424;6.762;2022-12-07T04:57:07;14.43;;;11.70;;
9007;SDS011;62813;51.424;6.762;2022-12-07T04:59:34;16.13;;;11.30;;
9007;SDS011;62813;51.424;6.762;2022-12-07T05:02:07;15.37;;;11.33;;
9007;SDS011;62813;51.424;6.762;2022-12-07T05:04:33;14.10;;;11.40;;
9007;SDS011;62813;51.424;6.762;2022-12-07T05:07:00;12.77;;;10.07;;
9007;SDS011;62813;51.424;6.762;2022-12-07T05:09:26;15.60;;;10.97;;
9007;SDS011;62813;51.424;6.762;2022-12-07T05:11:53;17.20;;;10.50;;
9007;SDS011;62813;51.424;6.762;2022-12-07T05:14:20;13.90;;;10.33;;
9007;SDS011;62813;51.424;6.762;2022-12-07T05:16:48;11.93;;;10.30;;
9007;SDS011;62813;51.424;6.762;2022-12-07T05:19:17;17.13;;;10.07;;
9007;SDS011;62813;51.424;6.762;2022-12-07T05:21:45;12.60;;;9.30;;
9007;SDS011;62813;51.424;6.762;2022-12-07T05:24:12;12.67;;;9.97;;
9007;SDS011;62813;51.424;6.762;2022-12-07T05:26:39;15.50;;;9.93;;
9007;SDS011;62813;51.424;6.762;2022-12-07T05:29:07;15.77;;;10.27;;
9007;SDS011;62813;51.424;6.762;2022-12-07T05:31:34;15.73;;;10.10;;
9007;SDS011;62813;51.424;6.762;2022-12-07T05:34:00;14.43;;;9.27;;
9007;SDS011;62813;51.424;6.762;2022-12-07T05:36:27;11.27;;;9.17;;
9007;SDS011;62813;51.424;6.762;2022-12-07T05:38:55;11.10;;;9.90;;
9007;SDS011;62813;51.424;6.762;2022-12-07T05:41:21;15.07;;;10.27;;
9007;SDS011;62813;51.424;6.762;2022-12-07T05:44:06;12.23;;;9.50;;
9007;SDS011;62813;51.424;6.762;2022-12-07T05:46:33;13.40;;;10.03;;
9007;SDS011;62813;51.424;6.762;2022-12-07T05:49:00;11.27;;;8.63;;
9007;SDS011;62813;51.424;6.762;2022-12-07T05:51:27;11.67;;;9.23;;
9007;SDS011;62813;51.424;6.762;2022-12-07T05:53:54;15.70;;;8.87;;
9007;SDS011;62813;51.424;6.762;2022-12-07T05:56:21;10.43;;;8.30;;
9007;SDS011;62813;51.424;6.762;2022-12-07T05:58:48;13.23;;;9.97;;
9007;SDS011;62813;51.424;6.762;2022-12-07T06:01:33;14.50;;;9.63;;
9007;SDS011;62813;51.424;6.762;2022-12-07T06:04:00;14.57;;;9.37;;
9007;SDS011;62813;51.424;6.762;2022-12-07T06:06:26;10.77;;;8.53;;
9007;SDS011;62813;51.424;6.762;2022-12-07T06:08:53;13.13;;;9.47;;
9007;SDS011;62813;51.424;6.762;2022-12-07T06:11:20;11.43;;;9.03;;
9007;SDS011;62813;51.424;6.762;2022-12-07T06:14:05;12.97;;;8.47;;
9007;SDS011;62813;51.424;6.762;2022-12-07T06:16:31;17.80;;;9.90;;
9007;SDS011;62813;51.424;6.762;2022-12-07T06:18:58;14.23;;;9.50;;
9007;SDS011;62813;51.424;6.762;2022-12-07T06:21:24;15.97;;;9.03;;
9007;SDS011;62813;51.424;6.762;2022-12-07T06:23:52;14.93;;;10.03;;
9007;SDS011;62813;51.424;6.762;2022-12-07T06:26:20;13.07;;;8.53;;
9007;SDS011;62813;51.424;6.762;2022-12-07T06:28:46;13.07;;;9.13;;
9007;SDS011;62813;51.424;6.762;2022-12-07T06:31:13;14.37;;;9.40;;
9007;SDS011;62813;51.424;6.762;2022-12-07T06:33:40;13.73;;;8.57;;
9007;SDS011;62813;51.424;6.762;2022-12-07T06:36:08;12.97;;;8.80;;
9007;SDS011;62813;51.424;6.762;2022-12-07T06:38:35;12.33;;;9.33;;
9007;SDS011;62813;51.424;6.762;2022-12-07T06:41:02;19.77;;;9.60;;
9007;SDS011;62813;51.424;6.762;2022-12-07T06:43:28;12.93;;;9.20;;
9007;SDS011;62813;51.424;6.762;2022-12-07T06:45:55;12.53;;;8.57;;
9007;SDS011;62813;51.424;6.762;2022-12-07T06:48:22;13.77;;;9.07;;
9007;SDS011;62813;51.424;6.762;2022-12-07T06:50:48;12.53;;;9.07;;
9007;SDS011;62813;51.424;6.762;2022-12-07T06:53:20;10.90;;;8.70;;
9007;SDS011;62813;51.424;6.762;2022-12-07T06:55:47;15.83;;;9.30;;
9007;SDS011;62813;51.424;6.762;2022-12-07T06:58:14;10.83;;;8.97;;
9007;SDS011;62813;51.424;6.762;2022-12-07T07:00:40;13.13;;;8.80;;
9007;SDS011;62813;51.424;6.762;2022-12-07T07:03:07;14.30;;;9.17;;
9007;SDS011;62813;51.424;6.762;2022-12-07T07:05:34;14.70;;;9.10;;
9007;SDS011;62813;51.424;6.762;2022-12-07T07:08:00;12.70;;;9.13;;
9007;SDS011;62813;51.424;6.762;2022-12-07T07:10:47;14.20;;;8.90;;
9007;SDS011;62813;51.424;6.762;2022-12-07T07:13:14;15.80;;;9.63;;
9007;SDS011;62813;51.424;6.762;2022-12-07T07:15:40;14.00;;;9.50;;
9007;SDS011;62813;51.424;6.762;2022-12-07T07:18:07;12.77;;;9.33;;
9007;SDS011;62813;51.424;6.762;2022-12-07T07:20:34;17.33;;;9.77;;
9007;SDS011;62813;51.424;6.762;2022-12-07T07:23:00;16.20;;;9.60;;
9007;SDS011;62813;51.424;6.762;2022-12-07T07:25:27;14.50;;;8.33;;
9007;SDS011;62813;51.424;6.762;2022-12-07T07:27:56;13.67;;;8.83;;
9007;SDS011;62813;51.424;6.762;2022-12-07T07:30:22;11.10;;;8.30;;
9007;SDS011;62813;51.424;6.762;2022-12-07T07:32:49;15.07;;;9.73;;
9007;SDS011;62813;51.424;6.762;2022-12-07T07:35:16;12.63;;;9.03;;
9007;SDS011;62813;51.424;6.762;2022-12-07T07:37:43;14.17;;;8.80;;
9007;SDS011;62813;51.424;6.762;2022-12-07T07:40:10;12.27;;;8.33;;
9007;SDS011;62813;51.424;6.762;2022-12-07T07:42:36;13.93;;;10.30;;
9007;SDS011;62813;51.424;6.762;2022-12-07T07:45:03;9.33;;;8.30;;
9007;SDS011;62813;51.424;6.762;2022-12-07T07:47:30;12.23;;;8.57;;
9007;SDS011;62813;51.424;6.762;2022-12-07T07:49:57;11.67;;;8.00;;
9007;SDS011;62813;51.424;6.762;2022-12-07T07:52:24;13.93;;;9.17;;
9007;SDS011;62813;51.424;6.762;2022-12-07T07:54:53;9.43;;;8.30;;
9007;SDS011;62813;51.424;6.762;2022-12-07T07:57:19;14.83;;;9.10;;
9007;SDS011;62813;51.424;6.762;2022-12-07T07:59:46;11.10;;;9.00;;
9007;SDS011;62813;51.424;6.762;2022-12-07T08:02:16;11.90;;;8.80;;
9007;SDS011;62813;51.424;6.762;2022-12-07T08:04:45;11.83;;;8.70;;
9007;SDS011;62813;51.424;6.762;2022-12-07T08:07:12;11.50;;;8.97;;
9007;SDS011;62813;51.424;6.762;2022-12-07T08:09:39;14.30;;;8.87;;
9007;SDS011;62813;51.424;6.762;2022-12-07T08:12:06;13.43;;;8.20;;
9007;SDS011;62813;51.424;6.762;2022-12-07T08:14:32;13.80;;;9.20;;
9007;SDS011;62813;51.424;6.762;2022-12-07T08:17:00;14.13;;;8.87;;
9007;SDS011;62813;51.424;6.762;2022-12-07T08:19:27;14.23;;;8.10;;
9007;SDS011;62813;51.424;6.762;2022-12-07T08:21:53;12.93;;;8.37;;
9007;SDS011;62813;51.424;6.762;2022-12-07T08:24:21;12.33;;;8.00;;
9007;SDS011;62813;51.424;6.762;2022-12-07T08:26:48;12.43;;;7.40;;
9007;SDS011;62813;51.424;6.762;2022-12-07T08:29:16;11.87;;;8.00;;
9007;SDS011;62813;51.424;6.762;2022-12-07T08:31:43;12.33;;;8.47;;
9007;SDS011;62813;51.424;6.762;2022-12-07T08:34:10;12.53;;;8.20;;
9007;SDS011;62813;51.424;6.762;2022-12-07T08:36:37;11.63;;;7.43;;
9007;SDS011;62813;51.424;6.762;2022-12-07T08:39:04;12.33;;;8.23;;
9007;SDS011;62813;51.424;6.762;2022-12-07T08:41:52;12.17;;;7.80;;
9007;SDS011;62813;51.424;6.762;2022-12-07T08:44:18;14.73;;;7.30;;
9007;SDS011;62813;51.424;6.762;2022-12-07T08:46:49;8.87;;;7.60;;
9007;SDS011;62813;51.424;6.762;2022-12-07T08:49:22;9.50;;;7.33;;
9007;SDS011;62813;51.424;6.762;2022-12-07T08:51:58;10.03;;;7.33;;
9007;SDS011;62813;51.424;6.762;2022-12-07T08:54:25;9.70;;;7.33;;
9007;SDS011;62813;51.424;6.762;2022-12-07T08:56:52;10.57;;;7.53;;
9007;SDS011;62813;51.424;6.762;2022-12-07T08:59:25;11.33;;;7.97;;
9007;SDS011;62813;51.424;6.762;2022-12-07T09:01:53;11.57;;;7.53;;
9007;SDS011;62813;51.424;6.762;2022-12-07T09:04:20;10.17;;;7.23;;
9007;SDS011;62813;51.424;6.762;2022-12-07T09:06:47;11.03;;;6.87;;
9007;SDS011;62813;51.424;6.762;2022-12-07T09:09:14;11.93;;;6.60;;
9007;SDS011;62813;51.424;6.762;2022-12-07T09:11:41;13.57;;;7.50;;
9007;SDS011;62813;51.424;6.762;2022-12-07T09:14:08;11.20;;;7.23;;
9007;SDS011;62813;51.424;6.762;2022-12-07T09:16:34;11.63;;;6.37;;
9007;SDS011;62813;51.424;6.762;2022-12-07T09:19:01;10.40;;;7.30;;
9007;SDS011;62813;51.424;6.762;2022-12-07T09:21:27;11.03;;;7.03;;
9007;SDS011;62813;51.424;6.762;2022-12-07T09:23:54;12.80;;;6.83;;
9007;SDS011;62813;51.424;6.762;2022-12-07T09:26:21;11.43;;;7.13;;
9007;SDS011;62813;51.424;6.762;2022-12-07T09:28:47;13.83;;;7.07;;
9007;SDS011;62813;51.424;6.762;2022-12-07T09:31:14;13.20;;;7.00;;
9007;SDS011;62813;51.424;6.762;2022-12-07T09:33:55;11.53;;;6.57;;
9007;SDS011;62813;51.424;6.762;2022-12-07T09:36:23;9.33;;;6.50;;
9007;SDS011;62813;51.424;6.762;2022-12-07T09:38:50;11.83;;;6.60;;
9007;SDS011;62813;51.424;6.762;2022-12-07T09:41:17;12.23;;;6.80;;
9007;SDS011;62813;51.424;6.762;2022-12-07T09:43:44;8.97;;;6.20;;
9007;SDS011;62813;51.424;6.762;2022-12-07T09:46:13;11.17;;;7.00;;
9007;SDS011;62813;51.424;6.762;2022-12-07T09:48:42;10.40;;;5.97;;
9007;SDS011;62813;51.424;6.762;2022-12-07T09:51:19;15.27;;;7.03;;
9007;SDS011;62813;51.424;6.762;2022-12-07T09:53:53;12.07;;;6.73;;
9007;SDS011;62813;51.424;6.762;2022-12-07T09:56:22;10.30;;;6.23;;
9007;SDS011;62813;51.424;6.762;2022-12-07T09:58:51;14.20;;;6.40;;
9007;SDS011;62813;51.424;6.762;2022-12-07T10:01:24;11.60;;;6.50;;
9007;SDS011;62813;51.424;6.762;2022-12-07T10:04:12;11.87;;;5.73;;
9007;SDS011;62813;51.424;6.762;2022-12-07T10:06:40;11.97;;;5.70;;
9007;SDS011;62813;51.424;6.762;2022-12-07T10:09:11;11.30;;;5.53;;
9007;SDS011;62813;51.424;6.762;2022-12-07T10:14:54;8.93;;;5.70;;
9007;SDS011;62813;51.424;6.762;2022-12-07T10:17:37;11.70;;;5.63;;
9007;SDS011;62813;51.424;6.762;2022-12-07T10:22:53;6.67;;;4.80;;
9007;SDS011;62813;51.424;6.762;2022-12-07T10:25:20;8.57;;;4.63;;
9007;SDS011;62813;51.424;6.762;2022-12-07T10:30:57;11.33;;;5.43;;
9007;SDS011;62813;51.424;6.762;2022-12-07T10:33:33;9.13;;;4.70;;
9007;SDS011;62813;51.424;6.762;2022-12-07T10:39:03;8.37;;;4.10;;
9007;SDS011;62813;51.424;6.762;2022-12-07T10:41:54;10.80;;;4.93;;
9007;SDS011;62813;51.424;6.762;2022-12-07T10:44:23;10.00;;;4.57;;
9007;SDS011;62813;51.424;6.762;2022-12-07T10:50:00;7.73;;;4.10;;
9007;SDS011;62813;51.424;6.762;2022-12-07T10:53:08;7.10;;;4.27;;
9007;SDS011;62813;51.424;6.762;2022-12-07T11:03:46;8.47;;;4.27;;
9007;SDS011;62813;51.424;6.762;2022-12-07T11:06:26;9.67;;;4.17;;
9007;SDS011;62813;51.424;6.762;2022-12-07T11:09:16;7.20;;;3.70;;
9007;SDS011;62813;51.424;6.762;2022-12-07T11:15:01;7.10;;;4.23;;
9007;SDS011;62813;51.424;6.762;2022-12-07T11:20:57;12.60;;;3.77;;
9007;SDS011;62813;51.424;6.762;2022-12-07T11:32:14;15.50;;;4.73;;
9007;SDS011;62813;51.424;6.762;2022-12-07T11:34:52;11.33;;;4.53;;
9007;SDS011;62813;51.424;6.762;2022-12-07T11:37:35;10.63;;;4.00;;
9007;SDS011;62813;51.424;6.762;2022-12-07T11:40:08;9.23;;;3.80;;
9007;SDS011;62813;51.424;6.762;2022-12-07T11:46:10;9.67;;;4.07;;
9007;SDS011;62813;51.424;6.762;2022-12-07T11:48:41;5.97;;;3.80;;
9007;SDS011;62813;51.424;6.762;2022-12-07T11:51:12;11.47;;;3.80;;
9007;SDS011;62813;51.424;6.762;2022-12-07T11:53:45;5.67;;;3.13;;
9007;SDS011;62813;51.424;6.762;2022-12-07T11:56:17;6.13;;;3.73;;
9007;SDS011;62813;51.424;6.762;2022-12-07T12:04:01;11.67;;;4.00;;
9007;SDS011;62813;51.424;6.762;2022-12-07T12:06:38;10.17;;;3.90;;
9007;SDS011;62813;51.424;6.762;2022-12-07T12:09:12;7.83;;;3.60;;
9007;SDS011;62813;51.424;6.762;2022-12-07T12:14:59;12.03;;;3.97;;
9007;SDS011;62813;51.424;6.762;2022-12-07T12:18:31;5.00;;;3.07;;
9007;SDS011;62813;51.424;6.762;2022-12-07T12:20:49;5.97;;;3.30;;
9007;SDS011;62813;51.424;6.762;2022-12-07T12:23:25;9.00;;;3.17;;
9007;SDS011;62813;51.424;6.762;2022-12-07T12:26:02;6.23;;;3.10;;
9007;SDS011;62813;51.424;6.762;2022-12-07T12:28:41;8.70;;;3.47;;
9007;SDS011;62813;51.424;6.762;2022-12-07T12:46:58;7.00;;;3.37;;
9007;SDS011;62813;51.424;6.762;2022-12-07T12:49:36;6.67;;;3.37;;
9007;SDS011;62813;51.424;6.762;2022-12-07T12:55:00;7.10;;;2.77;;
9007;SDS011;62813;51.424;6.762;2022-12-07T12:57:37;7.30;;;2.77;;
9007;SDS011;62813;51.424;6.762;2022-12-07T13:00:20;4.80;;;2.40;;
9007;SDS011;62813;51.424;6.762;2022-12-07T13:02:54;5.70;;;2.43;;
9007;SDS011;62813;51.424;6.762;2022-12-07T13:05:23;5.30;;;2.07;;
9007;SDS011;62813;51.424;6.762;2022-12-07T13:07:54;6.07;;;2.50;;
9007;SDS011;62813;51.424;6.762;2022-12-07T13:20:58;7.20;;;3.50;;
9007;SDS011;62813;51.424;6.762;2022-12-07T13:26:19;9.30;;;3.90;;
9007;SDS011;62813;51.424;6.762;2022-12-07T13:31:37;5.83;;;3.37;;
9007;SDS011;62813;51.424;6.762;2022-12-07T13:36:54;8.33;;;3.73;;
9007;SDS011;62813;51.424;6.762;2022-12-07T13:39:23;9.63;;;3.67;;
9007;SDS011;62813;51.424;6.762;2022-12-07T13:41:52;7.27;;;3.73;;
9007;SDS011;62813;51.424;6.762;2022-12-07T13:44:21;9.80;;;3.63;;
9007;SDS011;62813;51.424;6.762;2022-12-07T13:47:05;9.33;;;3.70;;
9007;SDS011;62813;51.424;6.762;2022-12-07T13:49:49;9.53;;;3.03;;
9007;SDS011;62813;51.424;6.762;2022-12-07T13:54:58;7.63;;;3.57;;
9007;SDS011;62813;51.424;6.762;2022-12-07T13:57:28;8.70;;;3.43;;
9007;SDS011;62813;51.424;6.762;2022-12-07T14:00:04;6.50;;;3.03;;
9007;SDS011;62813;51.424;6.762;2022-12-07T14:02:33;8.87;;;2.63;;
9007;SDS011;62813;51.424;6.762;2022-12-07T14:05:15;7.00;;;2.20;;
9007;SDS011;62813;51.424;6.762;2022-12-07T14:07:53;7.03;;;2.30;;
9007;SDS011;62813;51.424;6.762;2022-12-07T14:10:31;4.73;;;2.77;;
9007;SDS011;62813;51.424;6.762;2022-12-07T14:13:02;9.07;;;2.60;;
9007;SDS011;62813;51.424;6.762;2022-12-07T14:15:49;7.77;;;2.37;;
9007;SDS011;62813;51.424;6.762;2022-12-07T14:18:29;6.37;;;2.47;;
9007;SDS011;62813;51.424;6.762;2022-12-07T14:23:37;6.63;;;2.23;;
9007;SDS011;62813;51.424;6.762;2022-12-07T14:26:07;7.33;;;2.37;;
9007;SDS011;62813;51.424;6.762;2022-12-07T14:28:37;6.30;;;2.37;;
9007;SDS011;62813;51.424;6.762;2022-12-07T14:31:08;6.00;;;2.87;;
9007;SDS011;62813;51.424;6.762;2022-12-07T14:33:45;10.33;;;3.03;;
9007;SDS011;62813;51.424;6.762;2022-12-07T14:36:12;7.57;;;2.50;;
9007;SDS011;62813;51.424;6.762;2022-12-07T14:38:40;13.80;;;2.70;;
9007;SDS011;62813;51.424;6.762;2022-12-07T14:41:10;8.07;;;2.53;;
9007;SDS011;62813;51.424;6.762;2022-12-07T14:43:59;6.07;;;2.30;;
9007;SDS011;62813;51.424;6.762;2022-12-07T14:46:47;5.60;;;2.20;;
9007;SDS011;62813;51.424;6.762;2022-12-07T14:49:16;7.40;;;2.97;;
9007;SDS011;62813;51.424;6.762;2022-12-07T14:51:58;5.90;;;2.57;;
9007;SDS011;62813;51.424;6.762;2022-12-07T14:54:45;9.43;;;2.93;;
9007;SDS011;62813;51.424;6.762;2022-12-07T14:57:12;9.17;;;2.70;;
9007;SDS011;62813;51.424;6.762;2022-12-07T14:59:38;6.63;;;2.60;;
9007;SDS011;62813;51.424;6.762;2022-12-07T15:02:11;7.00;;;3.23;;
9007;SDS011;62813;51.424;6.762;2022-12-07T15:04:39;6.87;;;3.43;;
9007;SDS011;62813;51.424;6.762;2022-12-07T15:07:09;10.10;;;3.83;;
9007;SDS011;62813;51.424;6.762;2022-12-07T15:09:43;9.50;;;3.70;;
9007;SDS011;62813;51.424;6.762;2022-12-07T15:12:10;6.13;;;3.27;;
9007;SDS011;62813;51.424;6.762;2022-12-07T15:14:36;7.73;;;3.20;;
9007;SDS011;62813;51.424;6.762;2022-12-07T15:17:03;6.57;;;3.33;;
9007;SDS011;62813;51.424;6.762;2022-12-07T15:19:35;9.20;;;3.77;;
9007;SDS011;62813;51.424;6.762;2022-12-07T15:22:01;6.50;;;3.07;;
9007;SDS011;62813;51.424;6.762;2022-12-07T15:24:28;9.33;;;3.63;;
9007;SDS011;62813;51.424;6.762;2022-12-07T15:26:55;7.47;;;3.37;;
9007;SDS011;62813;51.424;6.762;2022-12-07T15:29:21;7.43;;;3.67;;
9007;SDS011;62813;51.424;6.762;2022-12-07T15:31:49;9.33;;;3.53;;
9007;SDS011;62813;51.424;6.762;2022-12-07T15:34:24;8.67;;;3.90;;
9007;SDS011;62813;51.424;6.762;2022-12-07T15:36:51;6.90;;;3.43;;
9007;SDS011;62813;51.424;6.762;2022-12-07T15:39:18;7.33;;;3.23;;
9007;SDS011;62813;51.424;6.762;2022-12-07T15:41:44;8.23;;;3.30;;
9007;SDS011;62813;51.424;6.762;2022-12-07T15:44:12;12.10;;;4.20;;
9007;SDS011;62813;51.424;6.762;2022-12-07T15:46:58;9.90;;;3.60;;
9007;SDS011;62813;51.424;6.762;2022-12-07T15:49:25;8.10;;;4.30;;
9007;SDS011;62813;51.424;6.762;2022-12-07T15:51:53;8.57;;;4.47;;
9007;SDS011;62813;51.424;6.762;2022-12-07T15:54:20;11.83;;;5.57;;
9007;SDS011;62813;51.424;6.762;2022-12-07T15:56:55;11.17;;;5.07;;
9007;SDS011;62813;51.424;6.762;2022-12-07T15:59:21;11.27;;;5.73;;
9007;SDS011;62813;51.424;6.762;2022-12-07T16:01:49;14.30;;;5.50;;
9007;SDS011;62813;51.424;6.762;2022-12-07T16:04:15;8.87;;;4.80;;
9007;SDS011;62813;51.424;6.762;2022-12-07T16:06:42;7.60;;;4.47;;
9007;SDS011;62813;51.424;6.762;2022-12-07T16:09:08;15.40;;;4.97;;
9007;SDS011;62813;51.424;6.762;2022-12-07T16:11:35;9.97;;;4.30;;
9007;SDS011;62813;51.424;6.762;2022-12-07T16:14:02;6.30;;;3.73;;
9007;SDS011;62813;51.424;6.762;2022-12-07T16:16:28;10.13;;;4.33;;
9007;SDS011;62813;51.424;6.762;2022-12-07T16:18:55;9.80;;;4.30;;
9007;SDS011;62813;51.424;6.762;2022-12-07T16:21:21;7.23;;;4.10;;
9007;SDS011;62813;51.424;6.762;2022-12-07T16:23:51;8.80;;;3.93;;
9007;SDS011;62813;51.424;6.762;2022-12-07T16:26:19;6.57;;;3.60;;
9007;SDS011;62813;51.424;6.762;2022-12-07T16:28:50;7.90;;;3.80;;
9007;SDS011;62813;51.424;6.762;2022-12-07T16:31:19;7.87;;;3.47;;
9007;SDS011;62813;51.424;6.762;2022-12-07T16:33:48;7.70;;;3.60;;
9007;SDS011;62813;51.424;6.762;2022-12-07T16:36:16;8.77;;;2.80;;
9007;SDS011;62813;51.424;6.762;2022-12-07T16:39:03;5.97;;;2.67;;
9007;SDS011;62813;51.424;6.762;2022-12-07T16:41:30;3.60;;;2.50;;
9007;SDS011;62813;51.424;6.762;2022-12-07T16:44:01;6.83;;;3.00;;
9007;SDS011;62813;51.424;6.762;2022-12-07T16:46:33;4.80;;;3.13;;
9007;SDS011;62813;51.424;6.762;2022-12-07T16:49:02;6.43;;;3.00;;
9007;SDS011;62813;51.424;6.762;2022-12-07T16:51:29;7.47;;;3.13;;
9007;SDS011;62813;51.424;6.762;2022-12-07T16:53:56;8.57;;;3.70;;
9007;SDS011;62813;51.424;6.762;2022-12-07T16:56:23;7.80;;;3.30;;
9007;SDS011;62813;51.424;6.762;2022-12-07T16:58:50;7.17;;;3.33;;
9007;SDS011;62813;51.424;6.762;2022-12-07T17:01:18;6.70;;;3.40;;
9007;SDS011;62813;51.424;6.762;2022-12-07T17:03:48;10.20;;;2.83;;